Ayers Rock, Northern Territory

11:07 AM ACST on July 31, 2016 (GMT +0930)
Ayers Rock (Connellan) | | Change Station

Elev 1627 ft 25.19 °S, 130.98 °E | Updated 37 minutes ago

Clear
Clear
68 °F
Feels Like 68 °F
N
2
Wind Variable Wind from West

Today
High -- | Low -- °F
--% Chance of Precip.
Yesterday
High -- | Low -- °F
Precip. -- in
Pressure 30.06 in
Visibility 6.2 miles
Clouds
Dew Point 34 °F
Humidity 28%
Rainfall 0.00 in
Snow Depth Not available.
7:24 AM 6:21 PM
Waning Crescent, 9% visible
METAR YAYE 310100Z AUTO 27002KT 9999 // NCD 20/01 Q1018
Pressure 30.06 in
Visibility 6.2 miles
Clouds
Dew Point 34 °F
Humidity 28%
Rainfall 0.00 in
Snow Depth Not available.
7:24 AM 6:21 PM
Waning Crescent, 9% visible
METAR YAYE 310100Z AUTO 27002KT 9999 // NCD 20/01 Q1018

10-Day Weather Forecast

No radar image for this location.
×

Almanac

Astronomy

Jul. 31, 2016 Rise Set
Actual Time
Civil Twilight
Nautical Twilight
Astronomical Twilight
Moon
Length of Visible Light
Length of Day
Tomorrow will be .
, % of the Moon is Illuminated

Today's Extremes

Country Highs Country Lows

Community

WunderPhotos

Upload Photos

1,928,699 photos uploaded!

WunderBlog® & News

Nearby

Air Quality

  Air Quality AQ Index Pollutant
Not available.

Snow Depth

Station Depth Elevation

Earthquake Activity

City Distance Mag. Time & Date
Minimum magnitude displayed is 2.5.

Coastal Water Temperatures

Place Temperature

Stations

Nearby Weather Stations

Station Location Temp. Windchill Dew Point Humidity Wind Precip. Elev Updated Type